Kota Kinabalu, Malaysia
Current Conditions -  °F | °C
As of 7:30 PM on Thursday 23 Oct 2014 (Local Time) from WBKK Reporting Station
Thunderstorm Thunderstorm  
Wind Chill: 77°   Ceiling: 25000
Heat Index: 78°   Visibility: 2.8mi
Dew Point: 75°   Wind: 3mph
Humidity: 94%   Direction: 130°SE
Pressure: 29.85"   Gusts: NA
Location:  5.97°N, 116.07°E
Report Text: WBKK 231130Z 13003KT 4500 TSRA FEW012 FEW016CB SCT030 OVC250 25/24 Q1011 NOSIG
Loading
Personal Weather Stations






























Interactive Weather Map
Tropical Storm Tracking
New forecast layout! Learn more

10-Day Weather Forecast

Advertisements
Track Severe Weather on mobile